Terminal Aerodrome Forecast
Issued by NWS

Home | Current Version | Previous Version | Graphics & Text | Print | Product List | Glossary On
Versions: 1 2 3 4 5 6 7 8 9 10 11 12 13
000
FTUS43 KLSX 122300
TAFSUS
TAF
KSUS 122328Z 1300/1324 20005KT P6SM BKN250
     FM131400 27008KT P6SM SCT050 BKN100
     FM132000 32008KT P6SM VCTS SCT050CB BKN100=

USA.gov is the U.S. government's official web portal to all federal, state and local government web resources and services.